createdAt,value
2018-09-21T00:00:15.983Z,49.41
2018-09-21T00:02:45.214Z,49.82
2018-09-21T00:05:13.666Z,49.30
2018-09-21T00:07:42.297Z,49.98
2018-09-21T00:10:10.765Z,49.91
2018-09-21T00:12:39.150Z,50.25
2018-09-21T00:15:07.644Z,50.42
2018-09-21T00:17:36.257Z,50.40
2018-09-21T00:20:04.815Z,49.69
2018-09-21T00:22:33.381Z,49.96
2018-09-21T00:25:01.891Z,49.65
2018-09-21T00:27:30.292Z,50.46
2018-09-21T00:29:58.850Z,50.49
2018-09-21T00:32:27.505Z,50.48
2018-09-21T00:34:56.142Z,50.22
2018-09-21T00:37:24.619Z,50.42
2018-09-21T00:39:53.151Z,50.50
2018-09-21T00:42:21.636Z,50.86
2018-09-21T00:44:50.253Z,50.74
2018-09-21T00:47:18.671Z,50.13
2018-09-21T00:49:47.096Z,49.88
2018-09-21T00:52:15.540Z,50.69
2018-09-21T00:54:43.974Z,50.34
2018-09-21T00:57:12.477Z,50.77
2018-09-21T00:59:41.007Z,50.31
2018-09-21T01:02:09.475Z,50.93
2018-09-21T01:04:43.476Z,50.31
2018-09-21T01:07:13.522Z,49.86
2018-09-21T01:09:42.594Z,50.37
2018-09-21T01:12:11.077Z,50.25
2018-09-21T01:14:39.562Z,49.83
2018-09-21T01:17:08.008Z,49.75
2018-09-21T01:19:36.568Z,49.89
2018-09-21T01:22:05.310Z,49.67
2018-09-21T01:24:33.942Z,50.14
2018-09-21T01:27:02.487Z,50.23
2018-09-21T01:29:31.048Z,50.15
2018-09-21T01:31:59.510Z,50.41
2018-09-21T01:34:28.732Z,49.99
2018-09-21T01:36:57.215Z,50.08
2018-09-21T01:39:25.834Z,50.35
2018-09-21T01:41:54.740Z,49.88
2018-09-21T01:44:23.312Z,49.84
2018-09-21T01:46:51.841Z,50.01
2018-09-21T01:49:20.374Z,49.81
2018-09-21T01:51:48.879Z,49.77
2018-09-21T01:54:17.453Z,50.56
2018-09-21T01:56:45.896Z,49.57
2018-09-21T01:59:14.370Z,50.05
2018-09-21T02:01:42.915Z,49.89
2018-09-21T02:04:11.456Z,49.93
2018-09-21T02:06:39.980Z,49.87
2018-09-21T02:09:09.540Z,49.80
2018-09-21T02:11:37.995Z,49.65
2018-09-21T02:14:06.521Z,49.51
2018-09-21T02:16:34.950Z,49.89
2018-09-21T02:19:03.381Z,49.28
2018-09-21T02:21:31.894Z,49.90
2018-09-21T02:24:00.406Z,49.62
2018-09-21T02:26:28.869Z,49.92
2018-09-21T02:28:57.349Z,49.33
2018-09-21T02:31:25.897Z,49.16
2018-09-21T02:33:54.379Z,48.93
2018-09-21T02:36:22.830Z,49.64
2018-09-21T02:38:51.450Z,49.07
2018-09-21T02:41:19.869Z,49.48
2018-09-21T02:43:48.347Z,50.07
2018-09-21T02:46:16.748Z,49.88
2018-09-21T02:48:45.275Z,51.02
2018-09-21T02:51:13.749Z,50.75
2018-09-21T02:53:42.123Z,50.89
2018-09-21T02:56:10.509Z,51.01
2018-09-21T02:58:39.143Z,50.33
2018-09-21T03:01:07.580Z,50.27
2018-09-21T03:03:36.040Z,49.82
2018-09-21T03:06:04.408Z,50.33
2018-09-21T03:08:32.943Z,50.19
2018-09-21T03:11:01.351Z,49.98
2018-09-21T03:13:29.835Z,50.05
2018-09-21T03:15:58.233Z,50.31
2018-09-21T03:18:26.690Z,50.66
2018-09-21T03:20:55.085Z,50.74
2018-09-21T03:23:23.674Z,50.54
2018-09-21T03:25:52.134Z,50.24
2018-09-21T03:28:20.581Z,50.83
2018-09-21T03:30:49.019Z,50.74
2018-09-21T03:33:17.469Z,50.74
2018-09-21T03:35:45.881Z,50.29
2018-09-21T03:38:14.338Z,51.00
2018-09-21T03:40:42.725Z,50.18
2018-09-21T03:43:11.702Z,50.40
2018-09-21T03:45:40.833Z,50.67
2018-09-21T03:48:09.360Z,51.07
2018-09-21T03:50:37.921Z,50.74
2018-09-21T03:53:06.439Z,51.13
2018-09-21T03:55:34.864Z,51.06
2018-09-21T03:58:03.284Z,50.78
2018-09-21T04:00:31.857Z,50.65
2018-09-21T04:03:01.137Z,50.33
2018-09-21T04:05:29.619Z,50.36
2018-09-21T04:07:58.211Z,50.30
2018-09-21T04:10:26.807Z,50.73
2018-09-21T04:12:55.314Z,50.20
2018-09-21T04:15:23.794Z,50.18
2018-09-21T04:17:52.295Z,50.91
2018-09-21T04:20:25.686Z,50.49
2018-09-21T04:23:01.484Z,50.44
2018-09-21T04:25:30.494Z,51.17
2018-09-21T04:27:58.934Z,50.55
2018-09-21T04:30:28.130Z,50.58
2018-09-21T04:32:57.492Z,51.13
2018-09-21T04:35:26.136Z,50.58
2018-09-21T04:37:54.800Z,50.92
2018-09-21T04:40:23.894Z,51.30
2018-09-21T04:42:52.302Z,50.87
2018-09-21T04:45:20.863Z,50.80
2018-09-21T04:47:49.453Z,50.79
2018-09-21T04:50:17.972Z,50.45
2018-09-21T04:52:46.578Z,50.59
2018-09-21T04:55:15.070Z,50.78
2018-09-21T04:57:43.504Z,50.78
2018-09-21T05:00:12.091Z,50.80
2018-09-21T05:02:40.652Z,50.71
2018-09-21T05:05:09.083Z,50.97
2018-09-21T05:07:37.826Z,50.83
2018-09-21T05:10:06.374Z,51.51
2018-09-21T05:12:35.241Z,50.93
2018-09-21T05:15:03.688Z,50.91
2018-09-21T05:17:32.314Z,51.29
2018-09-21T05:20:00.751Z,51.56
2018-09-21T05:22:29.339Z,51.67
2018-09-21T05:24:57.872Z,51.33
2018-09-21T05:27:26.482Z,51.50
2018-09-21T05:29:55.614Z,51.71
2018-09-21T05:32:24.125Z,52.13
2018-09-21T05:34:52.728Z,51.94
2018-09-21T05:37:21.248Z,52.27
2018-09-21T05:39:49.766Z,52.03
2018-09-21T05:42:18.275Z,51.85
2018-09-21T05:44:46.905Z,52.46
2018-09-21T05:50:11.998Z,52.55
2018-09-21T05:52:40.497Z,52.42
2018-09-21T05:55:09.096Z,52.30
2018-09-21T05:57:37.759Z,52.00
2018-09-21T06:00:06.365Z,52.02
2018-09-21T06:02:35.057Z,52.28
2018-09-21T06:05:03.859Z,51.69
2018-09-21T06:07:32.890Z,52.48
2018-09-21T06:10:01.628Z,52.49
2018-09-21T06:12:30.422Z,52.09
2018-09-21T06:14:59.118Z,52.41
2018-09-21T06:17:27.695Z,52.51
2018-09-21T06:19:56.340Z,52.19
2018-09-21T06:22:25.061Z,52.20
2018-09-21T06:24:53.610Z,51.55
2018-09-21T06:27:22.304Z,51.43
2018-09-21T06:29:50.772Z,51.00
2018-09-21T06:32:19.258Z,51.60
2018-09-21T06:34:47.878Z,51.04
2018-09-21T06:37:16.437Z,51.19
2018-09-21T06:39:44.987Z,51.51
2018-09-21T06:42:13.547Z,51.48
2018-09-21T06:44:42.581Z,50.94
2018-09-21T06:47:11.321Z,50.90
2018-09-21T06:49:39.808Z,51.02
2018-09-21T06:52:08.523Z,50.84
2018-09-21T06:54:37.124Z,51.36
2018-09-21T06:57:05.629Z,51.06
2018-09-21T06:59:34.276Z,51.05
2018-09-21T07:02:02.802Z,51.09
2018-09-21T07:04:31.445Z,51.19
2018-09-21T07:06:59.968Z,50.68
2018-09-21T07:09:28.672Z,50.84
2018-09-21T07:11:57.260Z,50.84
2018-09-21T07:14:25.845Z,50.93
2018-09-21T07:16:54.360Z,50.64
2018-09-21T07:19:22.853Z,50.42
2018-09-21T07:21:51.510Z,49.93
2018-09-21T07:24:20.791Z,50.63
2018-09-21T07:26:49.437Z,50.24
2018-09-21T07:29:18.411Z,50.23
2018-09-21T07:31:46.914Z,49.58
2018-09-21T07:34:15.407Z,49.94
2018-09-21T07:36:44.308Z,49.16
2018-09-21T07:39:13.026Z,48.63
2018-09-21T07:41:41.727Z,48.64
2018-09-21T07:44:10.450Z,47.95
2018-09-21T07:46:39.032Z,47.12
2018-09-21T07:49:07.601Z,46.88
2018-09-21T07:51:36.098Z,46.64
2018-09-21T07:54:04.713Z,46.56
2018-09-21T07:56:33.254Z,46.17
2018-09-21T07:59:01.740Z,46.14
2018-09-21T08:01:30.342Z,46.06
2018-09-21T08:03:58.948Z,45.30
2018-09-21T08:06:27.383Z,45.86
2018-09-21T08:08:56.026Z,45.08
2018-09-21T08:11:24.640Z,45.09
2018-09-21T08:13:53.278Z,45.26
2018-09-21T08:16:21.892Z,44.93
2018-09-21T08:18:50.431Z,44.98
2018-09-21T08:21:19.580Z,44.66
2018-09-21T08:23:48.048Z,43.37
2018-09-21T08:26:16.497Z,44.22
2018-09-21T08:28:45.270Z,44.53
2018-09-21T08:31:14.100Z,44.38
2018-09-21T08:33:42.696Z,43.73
2018-09-21T08:36:11.550Z,43.99
2018-09-21T08:38:40.246Z,44.02
2018-09-21T08:41:08.980Z,43.51
2018-09-21T08:43:37.536Z,43.76
2018-09-21T08:46:06.239Z,43.67
2018-09-21T08:48:34.946Z,43.06
2018-09-21T08:51:04.048Z,43.53
2018-09-21T08:53:32.865Z,42.70
2018-09-21T08:56:01.470Z,43.06
2018-09-21T08:58:29.986Z,43.32
2018-09-21T09:00:58.607Z,42.76
2018-09-21T09:03:27.320Z,43.02
2018-09-21T09:05:55.869Z,42.73
2018-09-21T09:08:25.685Z,42.43
2018-09-21T09:10:55.402Z,42.55
2018-09-21T09:13:24.039Z,42.39
2018-09-21T09:15:52.545Z,42.29
2018-09-21T09:18:21.122Z,42.43
2018-09-21T09:20:49.710Z,41.78
2018-09-21T09:23:18.381Z,42.00
2018-09-21T09:25:47.324Z,42.00
2018-09-21T09:28:16.079Z,42.33
2018-09-21T09:30:44.879Z,41.63
2018-09-21T09:33:13.436Z,40.82
2018-09-21T09:35:41.979Z,40.23
2018-09-21T09:38:10.973Z,41.10
2018-09-21T09:40:39.806Z,41.05
2018-09-21T09:43:11.176Z,40.56
2018-09-21T09:45:39.885Z,40.70
2018-09-21T09:48:08.445Z,40.31
2018-09-21T09:50:36.943Z,40.02
2018-09-21T09:53:05.701Z,41.49
2018-09-21T09:55:34.093Z,41.42
2018-09-21T09:58:02.626Z,42.68
2018-09-21T10:00:35.965Z,42.99
2018-09-21T10:03:04.570Z,43.35
2018-09-21T10:05:33.328Z,43.99
2018-09-21T10:08:02.007Z,43.96
2018-09-21T10:10:30.642Z,44.18
2018-09-21T10:12:59.379Z,44.48
2018-09-21T10:15:27.880Z,45.15
2018-09-21T10:17:56.390Z,44.92
2018-09-21T10:20:25.126Z,45.78
2018-09-21T10:22:54.126Z,45.37
2018-09-21T10:25:22.720Z,45.79
2018-09-21T10:27:51.408Z,46.35
2018-09-21T10:30:19.912Z,45.89
2018-09-21T10:32:48.733Z,46.43
2018-09-21T10:35:17.575Z,46.88
2018-09-21T10:37:46.202Z,46.56
2018-09-21T10:40:14.839Z,46.55
2018-09-21T10:42:43.337Z,46.69
2018-09-21T10:45:11.900Z,47.50
2018-09-21T10:47:40.581Z,47.68
2018-09-21T10:50:09.156Z,47.63
2018-09-21T10:52:44.263Z,47.22
2018-09-21T10:55:12.732Z,48.58
2018-09-21T10:57:41.192Z,51.32
2018-09-21T11:00:10.600Z,53.52
2018-09-21T11:02:39.290Z,54.41
2018-09-21T11:05:07.858Z,56.78
2018-09-21T11:07:36.330Z,57.92
2018-09-21T11:10:04.922Z,58.47
2018-09-21T11:12:33.420Z,60.37
2018-09-21T11:15:01.902Z,60.27
2018-09-21T11:17:30.524Z,60.79
2018-09-21T11:19:59.082Z,61.73
2018-09-21T11:22:27.638Z,62.43
2018-09-21T11:24:56.271Z,63.73
2018-09-21T11:27:24.901Z,64.61
2018-09-21T11:29:53.525Z,65.42
2018-09-21T11:32:22.546Z,64.91
2018-09-21T11:34:51.066Z,64.39
2018-09-21T11:37:19.584Z,64.75
2018-09-21T11:39:48.227Z,65.22
2018-09-21T11:42:16.882Z,65.75
2018-09-21T11:44:45.691Z,64.51
2018-09-21T11:47:14.279Z,64.54
2018-09-21T11:49:43.090Z,64.59
2018-09-21T11:52:11.577Z,63.07
2018-09-21T11:54:40.207Z,63.95
2018-09-21T11:57:08.813Z,63.06
2018-09-21T11:59:37.358Z,64.11
2018-09-21T12:02:06.256Z,64.25
2018-09-21T12:04:34.750Z,64.24
2018-09-21T12:07:03.371Z,64.41
2018-09-21T12:09:32.163Z,64.61
2018-09-21T12:12:00.735Z,65.27
2018-09-21T12:14:29.247Z,65.58
2018-09-21T12:16:57.885Z,65.49
2018-09-21T12:19:26.502Z,65.74
2018-09-21T12:21:55.340Z,64.69
2018-09-21T12:24:23.912Z,64.96
2018-09-21T12:26:52.549Z,65.37
2018-09-21T12:29:21.020Z,65.44
2018-09-21T12:31:49.544Z,65.70
2018-09-21T12:34:18.109Z,65.05
2018-09-21T12:36:46.627Z,64.95
2018-09-21T12:39:15.524Z,64.89
2018-09-21T12:41:44.570Z,65.68
2018-09-21T12:44:15.055Z,65.36
2018-09-21T12:46:43.588Z,65.83
2018-09-21T12:49:18.661Z,65.87
2018-09-21T12:51:47.652Z,65.50
2018-09-21T12:54:16.058Z,65.97
2018-09-21T12:56:44.620Z,66.47
2018-09-21T12:59:13.064Z,66.64
2018-09-21T13:01:41.535Z,65.90
2018-09-21T13:04:10.136Z,65.51
2018-09-21T13:06:39.002Z,65.02
2018-09-21T13:09:08.391Z,65.60
2018-09-21T13:11:37.015Z,65.05
2018-09-21T13:14:05.549Z,64.92
2018-09-21T13:16:33.984Z,64.62
2018-09-21T13:19:02.493Z,64.53
2018-09-21T13:21:31.237Z,64.17
2018-09-21T13:24:06.016Z,64.55
2018-09-21T13:26:40.443Z,64.06
2018-09-21T13:29:09.293Z,64.45
2018-09-21T13:31:37.781Z,62.91
2018-09-21T13:34:07.318Z,63.93
2018-09-21T13:36:36.247Z,64.15
2018-09-21T13:39:07.347Z,63.56
2018-09-21T13:41:40.179Z,63.25
2018-09-21T13:44:08.798Z,62.22
2018-09-21T13:46:37.337Z,63.14
2018-09-21T13:49:06.157Z,62.43
2018-09-21T13:51:34.569Z,63.05
2018-09-21T13:54:03.220Z,61.99
2018-09-21T13:56:32.107Z,57.60
2018-09-21T13:59:00.484Z,58.04
2018-09-21T14:01:29.365Z,57.75
2018-09-21T14:03:58.352Z,56.68
2018-09-21T14:06:26.979Z,55.15
2018-09-21T14:08:55.561Z,52.27
2018-09-21T14:11:24.255Z,51.08
2018-09-21T14:13:53.077Z,51.05
2018-09-21T14:16:21.705Z,51.52
2018-09-21T14:18:50.220Z,51.10
2018-09-21T14:21:18.813Z,51.17
2018-09-21T14:23:47.313Z,52.16
2018-09-21T14:26:15.920Z,50.15
2018-09-21T14:28:44.700Z,48.96
2018-09-21T14:31:13.362Z,48.14
2018-09-21T14:33:42.231Z,48.64
2018-09-21T14:36:10.983Z,48.86
2018-09-21T14:38:39.857Z,48.71
2018-09-21T14:41:08.367Z,47.87
2018-09-21T14:43:36.945Z,48.29
2018-09-21T14:46:05.525Z,48.56
2018-09-21T14:48:33.995Z,48.53
2018-09-21T14:51:02.533Z,48.59
2018-09-21T14:53:30.931Z,48.85
2018-09-21T14:55:59.669Z,48.56
2018-09-21T14:58:28.401Z,48.85
2018-09-21T15:00:57.251Z,47.13
2018-09-21T15:03:26.210Z,47.89
2018-09-21T15:05:55.000Z,48.12
2018-09-21T15:08:25.582Z,48.30
2018-09-21T15:10:54.243Z,48.58
2018-09-21T15:13:22.810Z,48.99
2018-09-21T15:15:51.326Z,48.11
2018-09-21T15:18:19.915Z,47.64
2018-09-21T15:20:48.473Z,47.71
2018-09-21T15:23:17.043Z,46.42
2018-09-21T15:25:45.724Z,45.97
2018-09-21T15:28:18.955Z,44.78
2018-09-21T15:30:47.404Z,46.04
2018-09-21T15:33:15.951Z,46.32
2018-09-21T15:35:44.593Z,45.93
2018-09-21T15:38:13.158Z,45.73
2018-09-21T15:40:41.849Z,46.11
2018-09-21T15:43:10.535Z,46.49
2018-09-21T15:45:39.145Z,47.43
2018-09-21T15:48:07.753Z,50.82
2018-09-21T15:50:36.455Z,52.58
2018-09-21T15:53:05.074Z,52.43
2018-09-21T15:55:33.573Z,51.86
2018-09-21T15:58:02.045Z,53.91
2018-09-21T16:00:30.711Z,54.13
2018-09-21T16:02:59.447Z,52.75
2018-09-21T16:05:29.805Z,52.15
2018-09-21T16:07:58.329Z,52.64
2018-09-21T16:10:26.878Z,48.48
2018-09-21T16:12:55.918Z,49.10
2018-09-21T16:15:25.027Z,46.83
2018-09-21T16:17:54.502Z,46.14
2018-09-21T16:20:23.305Z,45.49
2018-09-21T16:22:52.023Z,46.10
2018-09-21T16:25:20.654Z,44.68
2018-09-21T16:27:49.856Z,45.14
2018-09-21T16:30:18.459Z,45.61
2018-09-21T16:32:47.181Z,45.38
2018-09-21T16:35:16.569Z,45.98
2018-09-21T16:37:45.508Z,46.03
2018-09-21T16:40:14.840Z,45.31
2018-09-21T16:42:43.463Z,44.43
2018-09-21T16:45:12.065Z,45.03
2018-09-21T16:47:41.130Z,45.00
2018-09-21T16:50:11.177Z,43.64
2018-09-21T16:52:39.877Z,43.70
2018-09-21T16:55:08.828Z,44.28
2018-09-21T16:57:37.632Z,44.53
2018-09-21T17:00:07.619Z,44.35
2018-09-21T17:02:36.527Z,44.42
2018-09-21T17:05:05.482Z,44.24
2018-09-21T17:07:33.993Z,44.29
2018-09-21T17:10:03.156Z,44.06
2018-09-21T17:12:31.742Z,44.14
2018-09-21T17:15:00.538Z,43.84
2018-09-21T17:17:29.313Z,43.91
2018-09-21T17:19:58.264Z,43.64
2018-09-21T17:22:26.994Z,42.90
2018-09-21T17:24:56.048Z,44.21
2018-09-21T17:27:24.822Z,43.15
2018-09-21T17:29:53.707Z,43.83
2018-09-21T17:32:22.580Z,43.50
2018-09-21T17:34:51.430Z,43.14
2018-09-21T17:37:20.319Z,43.43
2018-09-21T17:39:49.213Z,43.55
2018-09-21T17:42:17.689Z,43.11
2018-09-21T17:44:46.439Z,43.20
2018-09-21T17:47:15.084Z,43.77
2018-09-21T17:49:44.249Z,43.69
2018-09-21T17:52:13.021Z,43.87
2018-09-21T17:54:42.083Z,44.00
2018-09-21T17:57:11.532Z,43.94
2018-09-21T17:59:40.942Z,44.63
2018-09-21T18:02:09.878Z,44.70
2018-09-21T18:04:38.858Z,45.11
2018-09-21T18:07:07.830Z,44.61
2018-09-21T18:09:36.719Z,45.34
2018-09-21T18:12:06.676Z,45.61
2018-09-21T18:14:36.413Z,44.68
2018-09-21T18:17:05.910Z,44.43
2018-09-21T18:19:35.459Z,44.56
2018-09-21T18:22:05.074Z,44.45
2018-09-21T18:24:34.838Z,45.12
2018-09-21T18:27:03.527Z,44.89
2018-09-21T18:29:32.020Z,43.84
2018-09-21T18:32:00.949Z,44.07
2018-09-21T18:34:29.394Z,44.22
2018-09-21T18:36:58.035Z,44.68
2018-09-21T18:39:26.991Z,44.60
2018-09-21T18:41:55.457Z,44.24
2018-09-21T18:44:24.002Z,44.16
2018-09-21T18:46:52.556Z,44.30
2018-09-21T18:49:21.329Z,44.02
2018-09-21T18:51:50.087Z,44.24
2018-09-21T18:54:18.899Z,43.81
2018-09-21T18:56:47.725Z,44.30
2018-09-21T18:59:16.583Z,44.21
2018-09-21T19:01:46.142Z,44.65
2018-09-21T19:04:15.728Z,44.45
2018-09-21T19:06:44.660Z,44.00
2018-09-21T19:09:13.557Z,44.07
2018-09-21T19:11:42.180Z,44.29
2018-09-21T19:14:11.207Z,43.95
2018-09-21T19:16:39.720Z,44.49
2018-09-21T19:19:10.887Z,43.88
2018-09-21T19:21:39.417Z,43.91
2018-09-21T19:24:08.024Z,44.25
2018-09-21T19:26:36.634Z,43.85
2018-09-21T19:29:05.094Z,44.12
2018-09-21T19:31:33.793Z,44.00
2018-09-21T19:34:02.635Z,44.71
2018-09-21T19:36:31.380Z,45.13
2018-09-21T19:39:00.367Z,45.25
2018-09-21T19:41:29.238Z,45.34
2018-09-21T19:43:57.768Z,45.64
2018-09-21T19:46:29.050Z,45.48
2018-09-21T19:48:57.703Z,45.99
2018-09-21T19:51:26.583Z,46.00
2018-09-21T19:53:55.147Z,46.58
2018-09-21T19:56:24.406Z,46.67
2018-09-21T19:58:52.925Z,45.86
2018-09-21T20:01:21.530Z,45.86
2018-09-21T20:03:50.058Z,46.45
2018-09-21T20:06:18.631Z,46.62
2018-09-21T20:08:47.206Z,46.63
2018-09-21T20:11:15.853Z,46.87
2018-09-21T20:13:44.674Z,47.35
2018-09-21T20:16:13.649Z,47.44
2018-09-21T20:18:42.460Z,47.28
2018-09-21T20:21:11.103Z,46.90
2018-09-21T20:23:40.253Z,47.01
2018-09-21T20:26:09.256Z,47.69
2018-09-21T20:28:46.285Z,48.26
2018-09-21T20:31:26.716Z,48.18
2018-09-21T20:33:55.465Z,49.01
2018-09-21T20:36:24.165Z,49.18
2018-09-21T20:38:52.756Z,49.42
2018-09-21T20:41:28.160Z,50.07
2018-09-21T20:43:56.802Z,50.54
2018-09-21T20:46:25.799Z,51.31
2018-09-21T20:48:54.791Z,50.92
2018-09-21T20:51:23.503Z,51.60
2018-09-21T20:53:52.420Z,51.65
2018-09-21T20:56:20.978Z,52.22
2018-09-21T20:58:49.779Z,52.22
2018-09-21T21:01:18.563Z,52.38
2018-09-21T21:03:47.239Z,52.36
2018-09-21T21:06:15.913Z,52.39
2018-09-21T21:08:44.499Z,53.09
2018-09-21T21:11:13.515Z,53.10
2018-09-21T21:13:42.200Z,53.51
2018-09-21T21:16:10.972Z,53.45
2018-09-21T21:18:39.584Z,53.34
2018-09-21T21:21:08.083Z,53.63
2018-09-21T21:23:36.702Z,53.70
2018-09-21T21:26:05.585Z,53.90
2018-09-21T21:28:34.271Z,54.41
2018-09-21T21:31:02.977Z,54.67
2018-09-21T21:33:31.551Z,54.99
2018-09-21T21:36:00.328Z,54.81
2018-09-21T21:38:28.903Z,55.31
2018-09-21T21:40:58.002Z,55.19
2018-09-21T21:43:26.450Z,55.23
2018-09-21T21:45:55.173Z,55.45
2018-09-21T21:48:23.798Z,55.64
2018-09-21T21:50:52.565Z,55.44
2018-09-21T21:53:21.566Z,55.30
2018-09-21T21:55:50.276Z,55.64
2018-09-21T21:58:19.080Z,55.83
2018-09-21T22:00:52.925Z,55.94
2018-09-21T22:03:21.959Z,56.39
2018-09-21T22:05:50.638Z,56.71
2018-09-21T22:08:19.159Z,56.61
2018-09-21T22:10:47.798Z,57.12
2018-09-21T22:13:21.627Z,56.98
2018-09-21T22:15:50.198Z,57.92
2018-09-21T22:18:19.681Z,57.63
2018-09-21T22:20:49.052Z,57.92
2018-09-21T22:23:18.709Z,58.34
2018-09-21T22:25:47.245Z,58.37
2018-09-21T22:28:15.889Z,58.13
2018-09-21T22:30:44.831Z,58.50
2018-09-21T22:33:14.420Z,58.84
2018-09-21T22:35:43.495Z,58.99
2018-09-21T22:38:12.621Z,58.78
2018-09-21T22:40:41.232Z,59.00
2018-09-21T22:43:09.954Z,58.52
2018-09-21T22:45:38.512Z,58.99
2018-09-21T22:48:07.195Z,59.12
2018-09-21T22:50:35.870Z,59.39
2018-09-21T22:53:04.594Z,59.80
2018-09-21T22:55:33.308Z,60.25
2018-09-21T22:58:01.892Z,59.85
2018-09-21T23:00:31.492Z,60.07
2018-09-21T23:03:00.087Z,60.18
2018-09-21T23:05:28.551Z,60.76
2018-09-21T23:07:57.153Z,60.86
2018-09-21T23:10:26.074Z,60.72
2018-09-21T23:12:54.700Z,61.25
2018-09-21T23:15:23.301Z,60.98
2018-09-21T23:17:52.143Z,61.30
2018-09-21T23:20:20.651Z,61.12
2018-09-21T23:22:49.227Z,61.59
2018-09-21T23:25:17.938Z,61.79
2018-09-21T23:27:46.445Z,61.85
2018-09-21T23:30:15.160Z,62.16
2018-09-21T23:32:43.611Z,62.18
2018-09-21T23:35:12.451Z,62.53
2018-09-21T23:37:41.014Z,62.04
2018-09-21T23:40:09.514Z,62.18
2018-09-21T23:42:38.016Z,62.30
2018-09-21T23:45:07.191Z,62.57
2018-09-21T23:47:35.748Z,62.05
2018-09-21T23:50:04.509Z,62.62
2018-09-21T23:52:33.010Z,62.27
2018-09-21T23:55:01.454Z,62.36
2018-09-21T23:57:29.931Z,62.39
2018-09-21T23:59:58.425Z,62.67
